Crookhaven, Ireland
Current Conditions -  °F | °C
As of 8:30 PM on Sunday 23 Nov 2014 (Local Time) from EIKY Reporting Station
Few Clouds Few Clouds  
Wind Chill: 34°   Ceiling: Unl
Heat Index: 34°   Visibility: 6mi
Dew Point: 34°   Wind: 3mph
Humidity: 100%   Direction: 100°E
Pressure: 30.18"   Gusts: NA
Location:  51.47°N, 9.73°W
Report Text: EIKY 231930Z 10003KT 9999 FEW039 01/01 Q1022
Loading
Personal Weather Stations






























Interactive Weather Map New forecast layout! Learn more

10-Day Weather Forecast

Advertisements
Track Severe Weather on mobile